Time;durP1;ratioP1;P1;durP2;ratioP2;P2;SDS_P1;SDS_P2;PMS_P1;PMS_P2;Temp;Humidity;BMP_temperature;BMP_pressure;BME280_temperature;BME280_humidity;BME280_pressure;Samples;Min_cycle;Max_cycle;Signal;HPM_P1;HPM_P2
2023/04/01 00:03:51;;;;;;;4.65;1.55;;;;;;;10.19;58.93;98027.41;10257658;28;21225;-60
2023/04/01 00:08:53;;;;;;;5.75;1.55;;;;;;;10.16;58.94;98027.66;10263032;28;20475;-61
2023/04/01 00:13:56;;;;;;;5.28;1.55;;;;;;;10.18;58.88;98038.81;10261731;28;20133;-60
2023/04/01 00:18:58;;;;;;;8.25;1.60;;;;;;;10.17;58.87;98035.41;10259453;28;20043;-60
2023/04/01 00:24:00;;;;;;;5.95;1.63;;;;;;;9.98;59.19;98045.78;10261553;28;20290;-60
2023/04/01 00:29:02;;;;;;;8.55;1.67;;;;;;;10.06;59.07;98035.50;10260709;28;20136;-60
2023/04/01 00:34:04;;;;;;;4.80;1.40;;;;;;;10.04;59.01;98037.41;10261883;28;20113;-61
2023/04/01 00:39:05;;;;;;;7.45;1.70;;;;;;;10.10;58.90;98039.50;10262926;28;20123;-61
2023/04/01 00:44:24;;;;;;;5.30;1.60;;;;;;;10.05;58.44;98033.88;10291030;28;20043;-61
2023/04/01 00:49:38;;;;;;;8.18;1.67;;;;;;;10.00;58.63;98030.81;10261077;28;20061;-61
2023/04/01 00:54:42;;;;;;;5.03;1.52;;;;;;;10.07;58.81;98031.94;10263420;28;20418;-61
2023/04/01 00:59:49;;;;;;;4.53;1.60;;;;;;;10.05;58.64;98030.41;10291619;28;20256;-61
2023/04/01 01:04:51;;;;;;;7.80;1.75;;;;;;;10.03;58.87;98021.88;10260005;28;20063;-61
2023/04/01 01:10:14;;;;;;;4.03;1.42;;;;;;;9.76;58.75;98019.91;10290503;28;20062;-61
2023/04/01 01:15:25;;;;;;;7.53;1.50;;;;;;;9.94;58.46;98007.84;10263322;28;20047;-60
2023/04/01 01:20:45;;;;;;;8.20;1.53;;;;;;;9.85;58.70;98018.28;10261493;28;20064;-60
2023/04/01 01:26:22;;;;;;;6.13;1.23;;;;;;;9.64;59.13;98023.53;10274787;28;20050;-60
2023/04/01 01:31:47;;;;;;;5.63;1.45;;;;;;;9.86;58.62;98020.75;10259552;28;20426;-60
2023/04/01 01:36:55;;;;;;;8.68;1.52;;;;;;;9.92;58.89;98015.00;10293167;28;20441;-60
2023/04/01 01:42:01;;;;;;;5.28;1.63;;;;;;;9.96;58.61;98012.94;10291458;28;20467;-60
2023/04/01 01:47:03;;;;;;;5.22;1.17;;;;;;;9.89;58.84;98014.44;10301577;28;20365;-60
2023/04/01 01:52:05;;;;;;;4.80;1.67;;;;;;;9.78;58.65;98022.38;10258590;28;20141;-60
2023/04/01 01:57:10;;;;;;;5.13;1.27;;;;;;;9.87;58.54;98009.31;10273268;28;20051;-60
2023/04/01 02:02:17;;;;;;;8.27;1.50;;;;;;;9.77;58.78;98007.69;10295242;28;20052;-60
2023/04/01 02:07:26;;;;;;;3.75;1.30;;;;;;;9.87;58.29;98026.81;10263562;28;20054;-60
2023/04/01 02:12:29;;;;;;;4.43;1.40;;;;;;;9.82;58.40;98018.53;10297884;28;20516;-60
2023/04/01 02:17:32;;;;;;;2.65;1.10;;;;;;;9.84;58.23;98007.00;10298941;28;20412;-60
2023/04/01 02:22:41;;;;;;;6.80;1.38;;;;;;;9.86;58.18;98001.63;10263554;28;20322;-60
2023/04/01 02:27:45;;;;;;;5.32;1.48;;;;;;;9.85;57.78;98006.03;10262751;28;20043;-60
2023/04/01 02:32:48;;;;;;;6.97;1.60;;;;;;;9.67;58.12;98010.22;10291405;28;20046;-60
2023/04/01 02:37:51;;;;;;;4.43;1.27;;;;;;;9.77;58.35;98008.47;10263399;28;20051;-60
2023/04/01 02:42:53;;;;;;;4.55;1.50;;;;;;;9.81;58.10;98009.84;10294446;28;20061;-60
2023/04/01 02:47:55;;;;;;;5.47;1.30;;;;;;;9.84;58.01;98000.94;10263929;28;20042;-60
2023/04/01 02:52:57;;;;;;;4.63;1.40;;;;;;;9.85;58.01;98003.41;10260619;28;20162;-60
2023/04/01 02:57:59;;;;;;;5.65;1.40;;;;;;;9.70;58.08;98016.97;10267996;28;20047;-60
2023/04/01 03:03:03;;;;;;;3.40;1.10;;;;;;;9.73;58.25;98007.09;10292900;28;20069;-60
2023/04/01 03:08:06;;;;;;;3.95;1.40;;;;;;;9.71;58.33;98013.44;10260062;28;20043;-60
2023/04/01 03:13:08;;;;;;;3.60;1.27;;;;;;;9.72;58.19;98004.63;10250551;28;20431;-60
2023/04/01 03:18:10;;;;;;;3.72;1.05;;;;;;;9.77;57.92;98005.88;10258390;28;20122;-60
2023/04/01 03:23:12;;;;;;;4.43;1.55;;;;;;;9.80;58.01;97986.50;10291573;28;20237;-60
2023/04/01 03:28:14;;;;;;;3.60;1.50;;;;;;;9.67;58.17;98006.81;10273947;28;20388;-60
2023/04/01 03:33:16;;;;;;;6.10;1.40;;;;;;;9.80;57.93;97986.50;10265052;28;20197;-60
2023/04/01 03:38:18;;;;;;;4.50;1.35;;;;;;;9.71;58.20;98001.19;10286700;28;20170;-60
2023/04/01 03:43:20;;;;;;;4.78;1.13;;;;;;;9.70;58.01;97983.06;10245540;28;20050;-60
2023/04/01 03:48:22;;;;;;;5.32;1.20;;;;;;;9.74;58.00;97993.09;10287582;28;20125;-60
2023/04/01 03:53:24;;;;;;;2.88;1.13;;;;;;;9.68;57.96;97996.25;10271473;28;20140;-60
2023/04/01 03:58:28;;;;;;;3.55;1.02;;;;;;;9.72;57.53;97983.75;10288265;28;20067;-60
2023/04/01 04:03:31;;;;;;;5.43;1.20;;;;;;;9.67;58.07;97991.16;10288110;28;20515;-60
2023/04/01 04:08:34;;;;;;;3.45;1.20;;;;;;;9.59;58.88;97987.38;10293253;28;20043;-60
2023/04/01 04:13:36;;;;;;;4.22;1.20;;;;;;;9.51;59.40;97987.22;10264841;28;20090;-60
2023/04/01 04:18:38;;;;;;;3.25;1.23;;;;;;;9.57;59.35;97988.47;10259859;28;20791;-60
2023/04/01 04:23:41;;;;;;;5.38;1.25;;;;;;;9.48;59.55;97994.50;10296788;28;20042;-60
2023/04/01 04:28:43;;;;;;;2.22;0.90;;;;;;;9.44;59.64;97999.13;10295424;28;20523;-60
2023/04/01 04:33:45;;;;;;;4.97;1.23;;;;;;;9.29;60.34;97995.22;10259619;28;20090;-60
2023/04/01 04:38:49;;;;;;;2.95;1.10;;;;;;;9.37;60.57;98000.63;10291679;28;20192;-60
2023/04/01 04:43:54;;;;;;;3.28;1.08;;;;;;;9.23;61.36;97997.53;10262491;28;20534;-60
2023/04/01 04:48:57;;;;;;;1.98;0.90;;;;;;;9.16;61.96;97993.78;10293368;28;20054;-60
2023/04/01 04:54:00;;;;;;;4.50;1.30;;;;;;;9.07;62.11;98000.63;10256403;28;20138;-60
2023/04/01 04:59:14;;;;;;;2.80;0.95;;;;;;;9.14;61.83;98001.72;10293940;28;20401;-60
2023/04/01 05:04:23;;;;;;;2.75;1.00;;;;;;;9.18;61.76;98004.94;10293846;28;20090;-60
2023/04/01 05:09:25;;;;;;;2.50;1.00;;;;;;;9.25;61.65;98003.44;10258426;28;20945;-60
2023/04/01 05:14:27;;;;;;;2.95;0.90;;;;;;;9.21;62.05;98012.47;10275857;28;20427;-60
2023/04/01 05:19:37;;;;;;;3.72;1.00;;;;;;;9.15;62.16;98010.38;10292189;28;20302;-60
2023/04/01 05:24:39;;;;;;;2.58;1.00;;;;;;;9.09;62.31;97998.69;10294182;28;20145;-60
2023/04/01 05:29:41;;;;;;;3.65;1.30;;;;;;;9.16;62.61;98009.41;10290309;28;20055;-60
2023/04/01 05:34:51;;;;;;;2.50;0.90;;;;;;;9.13;62.53;98007.91;10291013;28;20046;-60
2023/04/01 05:39:52;;;;;;;3.75;1.35;;;;;;;9.07;62.54;98011.03;10262956;28;20061;-60
2023/04/01 05:44:55;;;;;;;4.43;1.00;;;;;;;9.19;62.19;98023.06;10272701;28;20298;-60
2023/04/01 05:50:35;;;;;;;4.32;1.13;;;;;;;9.27;62.18;98018.00;10261940;28;20050;-59
2023/04/01 05:55:37;;;;;;;6.03;1.20;;;;;;;9.25;62.19;98017.31;10289782;28;20046;-60
2023/04/01 06:00:39;;;;;;;2.40;1.00;;;;;;;9.38;61.94;98017.09;10275159;28;20051;-60
2023/04/01 06:05:43;;;;;;;2.10;0.95;;;;;;;9.32;62.29;98018.44;10289798;28;20966;-60
2023/04/01 06:10:59;;;;;;;4.25;1.92;;;;;;;9.34;62.99;98013.09;10292099;28;20089;-60
2023/04/01 06:16:20;;;;;;;9.02;4.50;;;;;;;9.19;63.04;98030.88;10278887;28;20302;-60
2023/04/01 06:21:31;;;;;;;3.20;1.08;;;;;;;9.32;62.92;98015.81;10272644;28;20054;-60
2023/04/01 06:27:05;;;;;;;2.50;1.52;;;;;;;9.35;63.56;98023.41;10253793;28;20094;-60
2023/04/01 06:32:22;;;;;;;2.53;1.42;;;;;;;9.41;63.79;98030.72;10272966;28;20105;-60
2023/04/01 06:37:52;;;;;;;2.88;1.10;;;;;;;9.52;64.03;98033.22;10291654;28;20043;-60
2023/04/01 06:43:35;;;;;;;3.50;0.88;;;;;;;9.57;64.01;98041.50;10258991;28;20197;-60
2023/04/01 06:49:04;;;;;;;3.38;0.80;;;;;;;9.77;63.83;98031.16;10258119;28;20057;-60
2023/04/01 06:54:51;;;;;;;2.28;0.93;;;;;;;9.84;63.85;98033.09;10256897;28;20035;-60
2023/04/01 07:00:17;;;;;;;1.13;0.73;;;;;;;9.91;63.68;98036.81;10258125;28;20050;-61
2023/04/01 07:05:19;;;;;;;3.45;1.08;;;;;;;9.94;63.51;98035.72;10287393;28;20145;-60
2023/04/01 07:10:34;;;;;;;2.92;1.00;;;;;;;10.00;63.73;98040.41;10269328;28;20149;-60
2023/04/01 07:16:09;;;;;;;2.15;0.80;;;;;;;10.04;63.52;98034.81;10259103;28;20055;-60
2023/04/01 07:21:43;;;;;;;3.40;1.02;;;;;;;10.33;63.08;98045.31;10287176;28;20537;-60
2023/04/01 07:26:56;;;;;;;2.35;0.80;;;;;;;10.59;62.57;98042.97;10255762;28;20102;-60
2023/04/01 07:32:26;;;;;;;1.02;0.70;;;;;;;10.64;62.55;98035.56;10296996;28;20121;-61
2023/04/01 07:37:33;;;;;;;0.63;0.60;;;;;;;10.72;62.31;98035.69;10312292;28;20430;-61
2023/04/01 07:43:12;;;;;;;1.85;0.98;;;;;;;10.77;61.77;98047.38;10270215;28;20440;-61
2023/04/01 07:48:39;;;;;;;0.85;0.60;;;;;;;10.70;62.06;98058.53;10270035;28;20054;-61
2023/04/01 07:54:06;;;;;;;1.08;0.70;;;;;;;10.48;62.48;98060.44;10297059;28;20073;-61
2023/04/01 07:59:23;;;;;;;2.35;0.80;;;;;;;10.50;62.33;98066.38;10262157;28;20075;-61
2023/04/01 08:04:33;;;;;;;1.25;0.70;;;;;;;10.53;62.65;98070.50;10277663;28;20403;-61
2023/04/01 08:09:36;;;;;;;1.58;0.77;;;;;;;10.61;62.74;98073.25;10266671;28;20510;-61
2023/04/01 08:15:23;;;;;;;1.33;0.60;;;;;;;10.64;62.96;98078.22;10263509;28;20101;-61
2023/04/01 08:20:34;;;;;;;1.00;0.70;;;;;;;10.22;63.56;98092.44;10269057;28;20046;-61
2023/04/01 08:25:39;;;;;;;;;;;;;;;10.34;63.92;98091.38;10305260;28;20054;-61
2023/04/01 08:30:54;;;;;;;1.27;0.95;;;;;;;11.09;62.60;98095.00;10300948;28;20086;-61
2023/04/01 08:35:57;;;;;;;1.58;0.70;;;;;;;11.09;62.36;98089.78;10270991;28;20042;-61
2023/04/01 08:41:00;;;;;;;1.42;0.65;;;;;;;11.16;62.29;98079.59;10301484;28;20558;-61
2023/04/01 08:46:56;;;;;;;0.80;0.70;;;;;;;11.13;62.49;98093.78;10272069;28;20086;-61
2023/04/01 08:52:06;;;;;;;1.23;0.60;;;;;;;11.42;62.25;98087.69;10294560;28;20476;-60
2023/04/01 08:57:21;;;;;;;0.73;0.70;;;;;;;11.74;61.61;98093.38;10278109;28;20383;-60
2023/04/01 09:03:09;;;;;;;0.98;0.73;;;;;;;12.43;60.08;98089.34;10262515;28;20426;-60
2023/04/01 09:08:30;;;;;;;1.65;0.90;;;;;;;12.51;59.42;98101.72;10260389;28;20089;-60
2023/04/01 09:13:56;;;;;;;0.75;0.60;;;;;;;12.19;60.32;98107.41;10276855;28;20077;-60
2023/04/01 09:19:14;;;;;;;1.67;0.93;;;;;;;11.98;60.46;98106.78;10276464;28;20487;-60
2023/04/01 09:24:35;;;;;;;1.23;0.70;;;;;;;11.99;60.05;98118.91;10260759;28;20683;-60
2023/04/01 09:29:56;;;;;;;0.93;0.77;;;;;;;12.03;60.17;98113.25;10300066;28;20415;-60
2023/04/01 09:35:01;;;;;;;;;;;;;;;11.76;60.81;98115.00;10260776;28;20069;-60
2023/04/01 09:40:28;;;;;;;0.70;0.60;;;;;;;11.91;60.63;98119.63;10289227;28;20318;-60
2023/04/01 09:45:43;;;;;;;0.88;0.70;;;;;;;11.82;60.35;98124.91;10299547;28;20039;-60
2023/04/01 09:51:33;;;;;;;2.78;0.95;;;;;;;11.94;61.05;98129.84;10294148;28;20058;-59
2023/04/01 09:56:41;;;;;;;0.75;0.75;;;;;;;11.74;61.49;98130.88;10284236;28;20142;-60
2023/04/01 10:02:07;;;;;;;0.85;0.80;;;;;;;11.70;61.89;98133.91;10261051;28;20074;-60
2023/04/01 10:07:51;;;;;;;0.60;0.60;;;;;;;11.89;61.44;98132.06;10260407;28;20499;-60
2023/04/01 10:13:31;;;;;;;2.20;0.90;;;;;;;11.89;60.86;98139.06;10274862;28;20576;-60
2023/04/01 10:19:04;;;;;;;1.55;1.00;;;;;;;11.68;61.43;98139.28;10259327;28;20055;-60
2023/04/01 10:24:19;;;;;;;6.07;3.25;;;;;;;11.87;61.52;98138.38;10293621;28;20144;-60
2023/04/01 10:29:56;;;;;;;2.15;1.30;;;;;;;12.01;60.96;98153.66;10278200;28;20059;-60
2023/04/01 10:35:36;;;;;;;0.88;0.80;;;;;;;12.07;60.33;98150.44;10265373;28;20558;-60
2023/04/01 10:41:09;;;;;;;16.70;15.00;;;;;;;12.09;60.68;98151.13;10265821;28;20130;-60
2023/04/01 10:47:14;;;;;;;5.13;2.20;;;;;;;12.36;60.11;98145.13;10287835;28;20137;-60
2023/04/01 10:52:54;;;;;;;1.98;1.40;;;;;;;12.68;59.19;98153.38;10263128;28;20520;-60
2023/04/01 10:58:31;;;;;;;5.15;2.10;;;;;;;12.87;58.31;98146.19;10259569;28;20450;-60
2023/04/01 11:04:26;;;;;;;2.85;1.42;;;;;;;12.89;58.48;98157.34;10211175;28;20062;-60
2023/04/01 11:10:26;;;;;;;3.08;1.98;;;;;;;12.98;57.85;98170.56;10284029;28;20055;-60
2023/04/01 11:15:46;;;;;;;3.53;1.60;;;;;;;12.53;59.57;98166.16;10246223;28;20053;-60
2023/04/01 11:21:34;;;;;;;2.40;1.60;;;;;;;12.27;60.28;98169.56;10289833;28;20054;-60
2023/04/01 11:27:10;;;;;;;3.35;1.90;;;;;;;12.31;60.68;98171.78;10252917;28;20050;-60
2023/04/01 11:32:59;;;;;;;1.88;1.30;;;;;;;12.21;60.90;98175.38;10283815;28;20043;-60
2023/04/01 11:38:25;;;;;;;2.08;1.27;;;;;;;12.33;60.94;98185.56;10259473;28;20213;-60
2023/04/01 11:43:39;;;;;;;2.50;1.30;;;;;;;12.49;61.18;98180.53;10262339;28;20061;-60
2023/04/01 11:48:52;;;;;;;3.50;1.40;;;;;;;12.83;60.34;98189.44;10263697;28;20059;-60
2023/04/01 11:54:04;;;;;;;2.70;1.73;;;;;;;13.21;59.42;98179.66;10296718;28;20223;-60
2023/04/01 11:59:49;;;;;;;2.25;1.40;;;;;;;13.53;58.37;98199.16;10257789;28;20515;-60
2023/04/01 12:05:09;;;;;;;1.33;1.20;;;;;;;13.98;57.88;98195.53;10273709;28;20061;-60
2023/04/01 12:10:35;;;;;;;1.63;1.17;;;;;;;14.13;57.56;98202.69;10256251;28;20077;-60
2023/04/01 12:16:06;;;;;;;1.05;1.02;;;;;;;14.05;55.51;98214.94;10273024;28;20050;-60
2023/04/01 12:21:36;;;;;;;1.10;1.00;;;;;;;14.20;56.50;98216.03;10259027;28;20055;-60
2023/04/01 12:26:53;;;;;;;1.13;1.00;;;;;;;14.28;56.32;98221.34;10267034;28;20194;-60
2023/04/01 12:32:09;;;;;;;1.25;1.10;;;;;;;14.23;56.89;98226.22;10263871;28;20406;-60
2023/04/01 12:37:26;;;;;;;1.85;1.00;;;;;;;13.90;57.49;98227.03;10264672;28;20048;-60
2023/04/01 12:42:53;;;;;;;1.38;1.10;;;;;;;13.78;58.31;98227.25;10295431;28;20050;-60
2023/04/01 12:48:19;;;;;;;0.98;0.90;;;;;;;14.12;57.82;98231.75;10262505;28;20519;-60
2023/04/01 12:53:49;;;;;;;1.00;1.00;;;;;;;14.13;57.23;98228.13;10260193;28;20381;-60
2023/04/01 12:59:09;;;;;;;1.13;1.00;;;;;;;14.42;57.49;98231.28;10257701;28;20047;-60
2023/04/01 13:04:39;;;;;;;1.90;1.00;;;;;;;14.37;56.67;98230.94;10260791;28;20051;-60
2023/04/01 13:09:47;;;;;;;1.50;1.00;;;;;;;15.16;56.23;98241.94;10264159;28;20448;-60
2023/04/01 13:15:14;;;;;;;1.63;1.10;;;;;;;15.31;56.70;98245.59;10296751;28;20719;-60
2023/04/01 13:20:28;;;;;;;1.20;1.00;;;;;;;15.18;53.99;98247.88;10262577;28;20082;-60
2023/04/01 13:26:22;;;;;;;1.02;0.98;;;;;;;15.06;55.78;98251.81;10262337;28;20042;-60
2023/04/01 13:31:50;;;;;;;1.30;1.10;;;;;;;14.60;54.85;98263.63;10262815;28;20138;-60
2023/04/01 13:37:13;;;;;;;1.00;0.90;;;;;;;14.39;55.73;98258.69;10263102;28;20134;-60
2023/04/01 13:42:25;;;;;;;1.70;1.30;;;;;;;14.88;56.07;98261.63;10266532;28;20487;-60
2023/04/01 13:47:45;;;;;;;1.40;1.10;;;;;;;14.61;56.60;98265.28;10267136;28;20067;-60
2023/04/01 13:53:05;;;;;;;1.00;0.90;;;;;;;14.80;55.91;98264.22;10267250;28;20051;-60
2023/04/01 13:58:10;;;;;;;1.60;0.98;;;;;;;14.62;56.46;98256.38;10266100;28;20051;-60
2023/04/01 14:03:20;;;;;;;1.33;1.00;;;;;;;14.73;55.57;98268.44;10267149;28;20902;-60
2023/04/01 14:09:07;;;;;;;1.98;1.05;;;;;;;15.13;55.50;98266.78;10265743;28;20046;-60
2023/04/01 14:14:35;;;;;;;1.08;0.80;;;;;;;14.79;54.77;98286.25;10257444;28;20050;-60
2023/04/01 14:20:19;;;;;;;0.90;0.90;;;;;;;14.67;55.41;98272.53;10266517;28;20056;-60
2023/04/01 14:25:45;;;;;;;1.48;1.00;;;;;;;14.22;56.27;98280.63;10228845;28;20069;-60
2023/04/01 14:31:02;;;;;;;2.13;1.20;;;;;;;14.31;56.97;98286.75;10266018;28;20145;-60
2023/04/01 14:36:29;;;;;;;1.50;1.00;;;;;;;13.86;57.70;98300.06;10296048;28;20057;-60
2023/04/01 14:41:55;;;;;;;3.40;1.30;;;;;;;13.54;58.93;98299.78;10264483;28;20051;-60
2023/04/01 14:47:19;;;;;;;3.28;1.60;;;;;;;13.21;59.87;98313.53;10265183;28;20295;-60
2023/04/01 14:52:21;;;;;;;2.17;1.30;;;;;;;13.00;61.26;98315.56;10264597;28;20057;-60
2023/04/01 14:57:27;;;;;;;1.58;1.10;;;;;;;13.02;60.94;98317.06;10295001;28;20066;-60
2023/04/01 15:02:48;;;;;;;1.83;1.30;;;;;;;13.11;62.57;98313.56;10264289;28;20137;-60
2023/04/01 15:08:30;;;;;;;3.00;1.30;;;;;;;13.15;61.58;98312.28;10262515;28;20055;-60
2023/04/01 15:13:48;;;;;;;2.60;1.38;;;;;;;13.07;61.98;98338.44;10252452;28;20058;-60
2023/04/01 15:19:29;;;;;;;1.92;1.40;;;;;;;12.82;62.92;98333.88;10264134;28;20086;-60
2023/04/01 15:25:05;;;;;;;3.47;1.77;;;;;;;12.47;64.38;98355.53;10262095;28;20057;-60
2023/04/01 15:30:31;;;;;;;2.28;1.10;;;;;;;12.65;60.78;98360.84;10264613;28;20993;-60
2023/04/01 15:35:47;;;;;;;2.35;1.00;;;;;;;12.67;62.11;98361.53;10257918;28;20039;-60
2023/04/01 15:41:14;;;;;;;1.85;1.10;;;;;;;12.68;61.26;98368.44;10263918;28;20061;-60
2023/04/01 15:46:44;;;;;;;2.75;1.30;;;;;;;12.43;62.24;98371.66;10261935;28;20126;-60
2023/04/01 15:52:01;;;;;;;2.95;1.38;;;;;;;12.65;62.19;98372.16;10258159;28;20055;-59
2023/04/01 15:57:39;;;;;;;2.53;1.63;;;;;;;12.78;61.42;98382.34;10275223;28;20061;-60
2023/04/01 16:02:49;;;;;;;2.42;1.20;;;;;;;12.93;60.84;98378.28;10261724;28;20050;-60
2023/04/01 16:08:06;;;;;;;1.60;1.10;;;;;;;12.81;61.17;98390.75;10281121;28;20125;-60
2023/04/01 16:13:46;;;;;;;2.25;1.30;;;;;;;12.86;61.83;98393.75;10266763;28;20039;-60
2023/04/01 16:19:31;;;;;;;1.80;1.17;;;;;;;12.78;61.63;98406.78;10259361;28;20050;-59
2023/04/01 16:24:35;;;;;;;1.83;1.10;;;;;;;12.72;62.19;98412.59;10267461;28;20059;-60
2023/04/01 16:29:53;;;;;;;2.15;1.00;;;;;;;12.63;62.18;98421.31;10268842;28;20120;-60
2023/04/01 16:35:22;;;;;;;1.30;1.10;;;;;;;12.82;62.58;98421.25;10265593;28;20421;-60
2023/04/01 16:40:52;;;;;;;1.38;1.10;;;;;;;12.74;62.25;98418.50;10268246;28;20043;-60
2023/04/01 16:46:13;;;;;;;2.42;1.50;;;;;;;12.52;62.44;98418.84;10265379;28;20138;-60
2023/04/01 16:51:17;;;;;;;4.40;1.07;;;;;;;12.33;63.14;98431.16;10267718;28;20533;-60
2023/04/01 16:56:24;;;;;;;1.98;1.20;;;;;;;12.10;63.11;98443.66;10266120;28;20043;-60
2023/04/01 17:01:33;;;;;;;2.50;1.30;;;;;;;12.03;63.44;98453.84;10264159;28;20406;-60
2023/04/01 17:07:17;;;;;;;3.35;1.30;;;;;;;11.97;63.43;98453.56;10264478;28;20616;-60
2023/04/01 17:12:35;;;;;;;2.53;1.30;;;;;;;12.02;63.26;98465.31;10264139;28;20055;-60
2023/04/01 17:17:53;;;;;;;1.67;1.20;;;;;;;12.03;62.51;98476.59;10264975;28;20074;-60
2023/04/01 17:23:05;;;;;;;4.10;1.20;;;;;;;11.67;63.94;98485.91;10260540;28;20055;-59
2023/04/01 17:28:24;;;;;;;1.50;1.13;;;;;;;11.52;65.75;98487.22;10267315;28;20138;-60
2023/04/01 17:33:55;;;;;;;3.33;1.30;;;;;;;11.38;64.50;98503.28;10263090;28;20399;-60
2023/04/01 17:39:15;;;;;;;2.05;1.40;;;;;;;11.25;64.64;98519.22;10260982;28;20046;-60
2023/04/01 17:44:38;;;;;;;3.00;1.20;;;;;;;11.29;64.79;98522.41;10265038;28;20286;-60
2023/04/01 17:50:14;;;;;;;3.00;1.40;;;;;;;11.19;65.56;98526.78;10265504;28;20047;-60
2023/04/01 17:55:31;;;;;;;1.98;1.20;;;;;;;11.16;65.80;98540.94;10265920;28;20042;-60
2023/04/01 18:00:55;;;;;;;5.43;1.42;;;;;;;11.14;65.73;98549.88;10265806;28;20105;-60
2023/04/01 18:06:23;;;;;;;3.20;1.60;;;;;;;10.95;66.15;98561.00;10265524;28;20475;-60
2023/04/01 18:11:34;;;;;;;4.80;2.00;;;;;;;11.01;65.95;98568.34;10264458;28;20046;-61
2023/04/01 18:17:11;;;;;;;3.25;1.83;;;;;;;10.92;66.98;98576.97;10263089;28;20129;-60
2023/04/01 18:22:28;;;;;;;3.22;1.90;;;;;;;11.06;66.09;98589.75;10296130;28;20090;-61
2023/04/01 18:27:38;;;;;;;4.38;2.33;;;;;;;10.92;66.11;98592.66;10263566;28;20039;-60
2023/04/01 18:32:56;;;;;;;4.15;2.03;;;;;;;10.89;67.32;98599.94;10264853;28;20507;-60
2023/04/01 18:38:13;;;;;;;3.72;1.80;;;;;;;10.97;66.58;98611.41;10265882;28;20057;-60
2023/04/01 18:43:37;;;;;;;3.28;2.10;;;;;;;10.72;66.98;98622.22;10263575;28;20129;-60
2023/04/01 18:49:00;;;;;;;3.80;2.10;;;;;;;10.65;67.41;98633.28;10264056;28;20105;-60
2023/04/01 18:54:12;;;;;;;3.30;1.95;;;;;;;10.66;66.97;98642.78;10264518;28;20050;-60
2023/04/01 18:59:29;;;;;;;2.20;1.33;;;;;;;10.64;66.83;98653.38;10292392;28;20423;-59
2023/04/01 19:05:01;;;;;;;1.95;1.25;;;;;;;10.72;66.70;98658.00;10262930;28;20060;-59
2023/04/01 19:10:44;;;;;;;2.77;1.20;;;;;;;10.72;66.41;98666.69;10262836;28;20085;-59
2023/04/01 19:15:48;;;;;;;2.17;1.60;;;;;;;10.74;66.74;98672.63;10261883;28;20547;-59
2023/04/01 19:21:01;;;;;;;1.92;1.50;;;;;;;10.53;67.32;98682.16;10267952;28;20133;-59
2023/04/01 19:26:30;;;;;;;2.35;1.70;;;;;;;10.40;67.91;98692.75;10268801;28;20046;-60
2023/04/01 19:31:38;;;;;;;2.85;1.60;;;;;;;10.43;67.19;98694.28;10262273;28;20078;-61
2023/04/01 19:36:55;;;;;;;4.90;1.70;;;;;;;10.30;67.99;98701.41;10265918;28;20043;-59
2023/04/01 19:42:26;;;;;;;1.70;1.33;;;;;;;10.22;67.76;98711.63;10264613;28;20414;-60
2023/04/01 19:47:53;;;;;;;2.05;1.40;;;;;;;10.09;67.57;98706.53;10264650;28;20046;-59
2023/04/01 19:53:00;;;;;;;2.67;1.30;;;;;;;10.02;67.70;98715.78;10264860;28;20074;-60
2023/04/01 19:58:23;;;;;;;1.65;1.13;;;;;;;9.93;67.54;98721.69;10267239;28;20082;-59
2023/04/01 20:03:48;;;;;;;1.98;1.45;;;;;;;9.95;67.62;98729.44;10268702;28;20051;-59
2023/04/01 20:09:09;;;;;;;3.75;2.20;;;;;;;10.00;67.66;98737.75;10262717;28;20053;-59
2023/04/01 20:14:36;;;;;;;3.97;2.83;;;;;;;10.04;67.83;98742.63;10268580;28;20467;-59
2023/04/01 20:19:59;;;;;;;5.30;2.28;;;;;;;10.07;67.43;98752.00;10269391;28;20057;-60
2023/04/01 20:25:12;;;;;;;3.28;2.22;;;;;;;10.13;67.53;98760.22;10268504;28;20047;-60
2023/04/01 20:30:47;;;;;;;7.25;3.45;;;;;;;10.12;67.72;98768.16;10267569;28;20045;-60
2023/04/01 20:36:14;;;;;;;8.38;4.70;;;;;;;10.24;67.18;98772.44;10295726;28;20055;-60
2023/04/01 20:41:26;;;;;;;4.40;2.90;;;;;;;10.32;67.29;98781.34;10280868;28;20105;-60
2023/04/01 20:47:03;;;;;;;5.30;2.10;;;;;;;10.39;67.36;98779.13;10264644;28;20046;-60
2023/04/01 20:52:10;;;;;;;4.28;2.47;;;;;;;10.43;67.12;98788.38;10254738;28;20055;-60
2023/04/01 20:57:43;;;;;;;4.15;2.63;;;;;;;10.41;67.12;98801.56;10261352;28;20073;-59
2023/04/01 21:03:05;;;;;;;3.72;2.60;;;;;;;10.45;67.16;98803.00;10263037;28;20089;-59
2023/04/01 21:08:22;;;;;;;6.30;3.42;;;;;;;10.50;67.09;98807.88;10259745;28;20483;-60
2023/04/01 21:13:24;;;;;;;15.20;9.95;;;;;;;10.41;67.02;98811.19;10261524;28;20051;-59
2023/04/01 21:18:47;;;;;;;6.65;5.00;;;;;;;10.39;67.17;98823.53;10295932;28;20042;-59
2023/04/01 21:24:11;;;;;;;14.65;9.45;;;;;;;10.45;66.91;98833.53;10263211;28;20295;-59
2023/04/01 21:29:22;;;;;;;6.30;3.33;;;;;;;10.53;66.95;98831.16;10260917;28;20509;-59
2023/04/01 21:34:42;;;;;;;7.10;4.15;;;;;;;10.50;67.00;98841.88;10260090;28;20043;-59
2023/04/01 21:40:03;;;;;;;5.93;4.25;;;;;;;10.49;66.67;98850.66;10260673;28;20184;-59
2023/04/01 21:45:05;;;;;;;;;;;;;;;10.03;67.66;98860.28;10260334;28;20061;-59
2023/04/01 21:50:18;;;;;;;6.50;4.50;;;;;;;10.18;67.60;98861.75;10259284;28;19933;-59
2023/04/01 21:55:42;;;;;;;9.18;4.47;;;;;;;10.28;67.41;98871.41;10289542;28;20053;-59
2023/04/01 22:00:46;;;;;;;8.52;3.97;;;;;;;10.34;67.35;98873.53;10260968;28;20057;-59
2023/04/01 22:06:00;;;;;;;7.63;4.72;;;;;;;10.24;67.17;98869.13;10259048;28;20065;-59
2023/04/01 22:11:16;;;;;;;6.70;4.30;;;;;;;10.24;67.43;98877.81;10260123;28;20391;-59
2023/04/01 22:16:18;;;;;;;7.57;5.28;;;;;;;10.39;67.25;98881.88;10259778;28;20410;-59
2023/04/01 22:21:30;;;;;;;17.58;10.93;;;;;;;10.37;67.37;98889.00;10262541;28;20098;-59
2023/04/01 22:26:53;;;;;;;41.97;13.80;;;;;;;10.38;67.29;98897.66;10258175;28;20133;-59
2023/04/01 22:32:02;;;;;;;173.27;15.10;;;;;;;10.39;67.20;98896.72;10256950;28;20074;-59
2023/04/01 22:37:24;;;;;;;6.72;5.30;;;;;;;10.31;67.68;98897.31;10257391;28;20051;-59
2023/04/01 22:42:47;;;;;;;5.07;3.90;;;;;;;10.20;67.67;98909.50;10257454;28;20134;-59
2023/04/01 22:48:22;;;;;;;9.55;5.35;;;;;;;10.18;68.04;98920.06;10257316;28;20042;-59
2023/04/01 22:53:45;;;;;;;4.28;2.70;;;;;;;10.15;67.92;98919.47;10254320;28;20057;-59
2023/04/01 22:59:13;;;;;;;7.18;3.35;;;;;;;10.03;68.31;98928.22;10256398;28;20061;-59
2023/04/01 23:04:21;;;;;;;6.88;3.75;;;;;;;10.05;68.17;98932.38;10253729;28;20086;-59
2023/04/01 23:09:27;;;;;;;4.38;3.10;;;;;;;10.06;68.09;98936.66;10257467;28;20046;-59
2023/04/01 23:14:43;;;;;;;5.55;2.70;;;;;;;10.09;67.88;98930.38;10258913;28;20485;-59
2023/04/01 23:20:06;;;;;;;3.50;2.30;;;;;;;9.95;67.86;98941.00;10259775;28;20047;-59
2023/04/01 23:25:20;;;;;;;5.05;2.20;;;;;;;9.81;68.19;98941.16;10257549;28;20145;-59
2023/04/01 23:30:40;;;;;;;6.35;2.20;;;;;;;9.79;67.61;98949.09;10258100;28;20121;-59
2023/04/01 23:36:10;;;;;;;3.17;1.93;;;;;;;9.76;67.70;98953.69;10257819;28;20053;-59
2023/04/01 23:41:33;;;;;;;4.70;1.70;;;;;;;9.66;67.85;98966.59;10256066;28;20511;-59
2023/04/01 23:46:36;;;;;;;5.35;1.92;;;;;;;9.70;67.92;98973.25;10256514;28;20065;-59
2023/04/01 23:51:51;;;;;;;4.93;1.75;;;;;;;9.76;67.87;98977.19;10256930;28;20538;-59
2023/04/01 23:56:55;;;;;;;3.88;1.70;;;;;;;9.90;67.33;98974.44;10255559;28;20053;-59
